Time;durP1;ratioP1;P1;durP2;ratioP2;P2;SDS_P1;SDS_P2;PMS_P1;PMS_P2;Temp;Humidity;BMP_temperature;BMP_pressure;BME280_temperature;BME280_humidity;BME280_pressure;Samples;Min_cycle;Max_cycle;Signal;HPM_P1;HPM_P2
2023/07/04 00:00:09;;;;;;;;;;;;;;;11.15;46.28;95236.72;4990757;28;20565;-79
2023/07/04 00:02:35;;;;;;;;;;;;;;;11.16;45.95;95235.72;4980109;28;19963;-79
2023/07/04 00:05:00;;;;;;;;;;;;;;;11.23;45.76;95230.47;4984720;28;19929;-77
2023/07/04 00:07:25;;;;;;;;;;;;;;;11.20;45.81;95230.84;4981302;28;19952;-81
2023/07/04 00:09:51;;;;;;;;;;;;;;;11.21;46.11;95235.13;4974749;28;20374;-77
2023/07/04 00:12:16;;;;;;;;;;;;;;;11.27;45.90;95234.38;4985405;28;19969;-80
2023/07/04 00:14:43;;;;;;;;;;;;;;;11.31;45.93;95230.31;4989653;28;19980;-78
2023/07/04 00:17:08;;;;;;;;;;;;;;;11.17;46.50;95226.72;4975709;28;20378;-79
2023/07/04 00:19:34;;;;;;;;;;;;;;;11.08;46.66;95225.97;4993553;28;19922;-82
2023/07/04 00:21:59;;;;;;;;;;;;;;;11.17;46.61;95229.38;4987018;28;20397;-79
2023/07/04 00:24:24;;;;;;;;;;;;;;;10.56;48.14;95220.75;4978519;28;20364;-81
2023/07/04 00:26:50;;;;;;;;;;;;;;;10.47;48.09;95229.84;4981491;28;19917;-78
2023/07/04 00:29:15;;;;;;;;;;;;;;;10.25;48.83;95229.81;4986744;28;19922;-78
2023/07/04 00:31:40;;;;;;;;;;;;;;;10.07;49.38;95225.69;4988496;28;19961;-81
2023/07/04 00:34:06;;;;;;;;;;;;;;;10.32;48.85;95228.06;4972170;28;19955;-78
2023/07/04 00:36:31;;;;;;;;;;;;;;;10.62;48.11;95230.63;4990458;28;20008;-80
2023/07/04 00:38:57;;;;;;;;;;;;;;;10.71;47.78;95227.88;4974934;28;19921;-81
2023/07/04 00:41:22;;;;;;;;;;;;;;;10.92;47.34;95224.41;4991552;28;19948;-80
2023/07/04 00:44:08;;;;;;;;;;;;;;;10.75;47.62;95229.16;4992569;28;19952;-78
2023/07/04 00:46:40;;;;;;;;;;;;;;;10.06;49.39;95234.69;4984731;28;19961;-79
2023/07/04 00:49:26;;;;;;;;;;;;;;;10.32;48.77;95227.22;4984476;28;19910;-78
2023/07/04 00:51:54;;;;;;;;;;;;;;;10.60;47.92;95227.34;4989992;28;20653;-81
2023/07/04 00:54:19;;;;;;;;;;;;;;;10.88;47.52;95223.94;4983794;28;20080;-80
2023/07/04 00:56:45;;;;;;;;;;;;;;;10.96;47.12;95224.84;4978830;28;20412;-77
2023/07/04 00:59:10;;;;;;;;;;;;;;;11.00;46.94;95226.13;4970336;28;19929;-78
2023/07/04 01:01:35;;;;;;;;;;;;;;;10.43;48.41;95236.56;5034497;23;1350138;-77
2023/07/04 01:04:03;;;;;;;;;;;;;;;10.55;48.00;95228.94;4963044;28;19932;-76
2023/07/04 01:06:55;;;;;;;;;;;;;;;10.47;48.27;95227.19;4960625;28;19917;-77
2023/07/04 01:09:20;;;;;;;;;;;;;;;10.03;49.35;95229.69;4952390;28;19926;-77
2023/07/04 01:11:49;;;;;;;;;;;;;;;10.33;48.99;95224.38;4956858;28;20096;-78
2023/07/04 01:14:22;;;;;;;;;;;;;;;9.92;49.83;95225.66;4966766;28;19930;-77
2023/07/04 01:16:47;;;;;;;;;;;;;;;10.09;49.19;95218.34;4955868;28;19913;-76
2023/07/04 01:19:13;;;;;;;;;;;;;;;9.87;49.81;95230.72;4955830;28;19926;-77
2023/07/04 01:21:38;;;;;;;;;;;;;;;10.13;49.13;95220.66;4965773;28;19914;-76
2023/07/04 01:24:06;;;;;;;;;;;;;;;10.06;49.46;95224.03;4956102;28;19965;-80
2023/07/04 01:26:35;;;;;;;;;;;;;;;9.90;49.80;95224.19;4947033;28;19950;-78
2023/07/04 01:29:00;;;;;;;;;;;;;;;9.87;49.78;95230.72;4956225;28;19952;-78
2023/07/04 01:31:26;;;;;;;;;;;;;;;9.70;50.46;95228.22;4957358;28;19949;-77
2023/07/04 01:33:51;;;;;;;;;;;;;;;9.87;50.23;95224.56;4955973;28;20273;-77
2023/07/04 01:36:17;;;;;;;;;;;;;;;9.41;51.44;95229.81;4957731;28;19936;-76
2023/07/04 01:38:42;;;;;;;;;;;;;;;9.31;51.25;95230.09;4956207;28;19915;-77
2023/07/04 01:41:08;;;;;;;;;;;;;;;9.35;51.35;95225.22;4952672;28;20174;-78
2023/07/04 01:43:34;;;;;;;;;;;;;;;9.06;52.25;95232.13;4950374;28;19974;-79
2023/07/04 01:46:01;;;;;;;;;;;;;;;8.87;53.28;95226.25;4950554;28;19939;-79
2023/07/04 01:48:26;;;;;;;;;;;;;;;9.27;51.88;95226.13;4964197;28;19973;-77
2023/07/04 01:50:52;;;;;;;;;;;;;;;8.86;53.23;95237.88;4941331;28;19918;-77
2023/07/04 01:53:17;;;;;;;;;;;;;;;8.95;52.86;95234.16;4970111;28;20511;-78
2023/07/04 01:55:42;;;;;;;;;;;;;;;8.37;54.90;95246.94;4969089;28;20082;-77
2023/07/04 01:58:07;;;;;;;;;;;;;;;8.44;54.98;95239.94;4955075;28;19925;-76
2023/07/04 02:00:33;;;;;;;;;;;;;;;8.61;54.28;95235.38;4955797;28;19956;-78
2023/07/04 02:02:58;;;;;;;;;;;;;;;8.57;53.89;95232.22;4956283;28;19960;-77
2023/07/04 02:05:23;;;;;;;;;;;;;;;9.11;53.21;95228.94;4967654;28;19998;-79
2023/07/04 02:07:49;;;;;;;;;;;;;;;9.32;52.41;95221.09;4986080;28;19956;-77
2023/07/04 02:10:14;;;;;;;;;;;;;;;9.28;52.46;95219.00;4956424;28;20105;-77
2023/07/04 02:12:39;;;;;;;;;;;;;;;8.93;53.18;95214.91;4968770;28;20012;-78
2023/07/04 02:15:07;;;;;;;;;;;;;;;9.10;52.82;95224.59;4951701;28;19949;-76
2023/07/04 02:17:32;;;;;;;;;;;;;;;9.00;52.77;95224.84;4961027;28;20203;-77
2023/07/04 02:19:57;;;;;;;;;;;;;;;9.05;53.03;95214.53;4975657;28;20117;-77
2023/07/04 02:22:23;;;;;;;;;;;;;;;9.03;53.19;95220.03;4980494;28;19941;-77
2023/07/04 02:24:48;;;;;;;;;;;;;;;8.77;53.65;95220.34;4988330;28;19922;-77
2023/07/04 02:27:13;;;;;;;;;;;;;;;8.48;54.78;95225.34;4977022;28;19959;-78
2023/07/04 02:29:39;;;;;;;;;;;;;;;8.18;55.48;95227.78;4972763;28;19967;-77
2023/07/04 02:32:04;;;;;;;;;;;;;;;8.37;55.10;95223.88;4972743;28;20026;-76
2023/07/04 02:34:29;;;;;;;;;;;;;;;8.51;54.73;95217.03;4973491;28;20323;-78
2023/07/04 02:36:54;;;;;;;;;;;;;;;8.31;55.78;95235.19;4975490;28;19935;-77
2023/07/04 02:39:20;;;;;;;;;;;;;;;8.34;55.37;95229.56;4968130;28;19955;-77
2023/07/04 02:41:45;;;;;;;;;;;;;;;8.33;55.54;95235.84;4982518;28;19935;-78
2023/07/04 02:44:11;;;;;;;;;;;;;;;8.56;55.09;95235.91;4978362;28;20147;-77
2023/07/04 02:46:36;;;;;;;;;;;;;;;8.57;54.54;95224.28;4957545;28;20383;-77
2023/07/04 02:49:04;;;;;;;;;;;;;;;9.03;53.43;95230.66;4979427;28;19932;-77
2023/07/04 02:51:29;;;;;;;;;;;;;;;9.09;53.40;95226.44;4985774;28;19956;-78
2023/07/04 02:53:55;;;;;;;;;;;;;;;9.01;53.77;95224.66;4971509;28;20196;-78
2023/07/04 02:56:20;;;;;;;;;;;;;;;9.33;52.53;95212.16;4956249;28;20021;-77
2023/07/04 02:58:45;;;;;;;;;;;;;;;9.69;51.60;95215.13;4973155;28;19975;-78
2023/07/04 03:01:10;;;;;;;;;;;;;;;9.69;51.71;95223.91;4969137;28;19982;-79
2023/07/04 03:03:36;;;;;;;;;;;;;;;9.80;51.39;95227.94;4954269;28;19926;-77
2023/07/04 03:06:01;;;;;;;;;;;;;;;9.14;53.10;95225.91;4979321;28;20601;-78
2023/07/04 03:08:27;;;;;;;;;;;;;;;9.03;53.13;95232.47;4985654;28;19961;-77
2023/07/04 03:10:52;;;;;;;;;;;;;;;9.09;52.82;95231.75;4978265;28;19952;-76
2023/07/04 03:13:17;;;;;;;;;;;;;;;8.86;53.50;95234.38;4961721;28;19999;-78
2023/07/04 03:15:43;;;;;;;;;;;;;;;8.62;54.08;95236.19;4975900;28;19963;-76
2023/07/04 03:18:08;;;;;;;;;;;;;;;8.59;54.52;95233.88;4970589;28;19956;-77
2023/07/04 03:20:33;;;;;;;;;;;;;;;8.39;54.91;95232.50;4957326;28;19969;-77
2023/07/04 03:22:59;;;;;;;;;;;;;;;8.17;55.58;95247.34;4973084;28;20267;-77
2023/07/04 03:25:24;;;;;;;;;;;;;;;8.46;54.57;95237.94;4973512;28;20106;-78
2023/07/04 03:27:49;;;;;;;;;;;;;;;8.30;55.15;95247.63;4972532;28;19960;-79
2023/07/04 03:30:15;;;;;;;;;;;;;;;8.00;56.58;95242.13;4976349;28;19933;-79
2023/07/04 03:32:40;;;;;;;;;;;;;;;8.30;55.47;95242.31;4959062;28;19974;-78
2023/07/04 03:35:07;;;;;;;;;;;;;;;7.97;56.65;95239.81;4948946;28;19954;-77
2023/07/04 03:37:32;;;;;;;;;;;;;;;8.36;55.20;95232.03;4956095;28;19947;-78
2023/07/04 03:39:58;;;;;;;;;;;;;;;8.20;55.37;95251.50;4973162;28;20358;-78
2023/07/04 03:42:23;;;;;;;;;;;;;;;8.41;55.08;95232.34;4971696;28;19922;-77
2023/07/04 03:44:49;;;;;;;;;;;;;;;8.00;56.05;95243.94;4974064;28;19935;-78
2023/07/04 03:47:14;;;;;;;;;;;;;;;7.94;56.71;95241.97;4968502;28;19996;-78
2023/07/04 03:49:39;;;;;;;;;;;;;;;8.10;55.83;95249.03;4973223;28;19930;-78
2023/07/04 03:52:05;;;;;;;;;;;;;;;8.07;55.93;95257.31;4970754;28;19961;-77
2023/07/04 03:54:30;;;;;;;;;;;;;;;7.92;57.01;95247.41;4989565;28;19971;-77
2023/07/04 03:56:55;;;;;;;;;;;;;;;7.99;56.53;95255.53;4972862;28;20007;-78
2023/07/04 03:59:20;;;;;;;;;;;;;;;8.23;55.78;95259.91;4970241;28;19952;-78
2023/07/04 04:01:46;;;;;;;;;;;;;;;8.25;55.52;95254.44;4967040;28;19956;-76
2023/07/04 04:04:11;;;;;;;;;;;;;;;8.35;55.41;95259.53;4992563;28;19958;-77
2023/07/04 04:06:36;;;;;;;;;;;;;;;8.76;54.32;95254.03;4990537;28;19941;-77
2023/07/04 04:09:02;;;;;;;;;;;;;;;8.79;54.02;95253.69;4982962;28;19963;-77
2023/07/04 04:11:27;;;;;;;;;;;;;;;9.22;52.73;95256.91;4980752;28;19941;-77
2023/07/04 04:13:53;;;;;;;;;;;;;;;9.65;51.43;95256.38;4988913;28;20351;-77
2023/07/04 04:16:18;;;;;;;;;;;;;;;9.74;51.27;95251.78;4986645;28;20307;-78
2023/07/04 04:18:43;;;;;;;;;;;;;;;9.78;51.17;95253.91;4988292;28;19952;-76
2023/07/04 04:21:09;;;;;;;;;;;;;;;9.70;51.25;95249.47;4968551;28;19929;-77
2023/07/04 04:23:34;;;;;;;;;;;;;;;10.04;50.54;95254.47;4963508;28;19967;-77
2023/07/04 04:26:00;;;;;;;;;;;;;;;9.58;51.50;95251.75;4977110;28;19925;-78
2023/07/04 04:28:26;;;;;;;;;;;;;;;9.83;50.95;95254.16;4960984;28;19940;-77
2023/07/04 04:30:51;;;;;;;;;;;;;;;9.85;50.88;95260.16;4984435;28;20043;-79
2023/07/04 04:33:16;;;;;;;;;;;;;;;9.92;50.52;95262.88;4963087;28;19951;-77
2023/07/04 04:35:43;;;;;;;;;;;;;;;9.80;50.88;95269.66;4978268;28;19959;-78
2023/07/04 04:38:10;;;;;;;;;;;;;;;9.98;50.44;95267.50;4978137;28;19993;-78
2023/07/04 04:40:35;;;;;;;;;;;;;;;9.97;50.35;95273.00;4962265;28;19906;-78
2023/07/04 04:43:02;;;;;;;;;;;;;;;10.06;50.24;95279.91;4960514;28;19962;-77
2023/07/04 04:45:28;;;;;;;;;;;;;;;10.27;49.90;95269.53;4984258;28;19945;-77
2023/07/04 04:47:53;;;;;;;;;;;;;;;10.30;49.65;95272.63;4983065;28;19941;-77
2023/07/04 04:50:22;;;;;;;;;;;;;;;10.33;49.79;95280.25;4962096;28;20343;-77
2023/07/04 04:52:47;;;;;;;;;;;;;;;10.42;49.40;95274.84;4971477;28;19973;-78
2023/07/04 04:55:13;;;;;;;;;;;;;;;10.65;49.14;95284.53;4966158;28;20116;-81
2023/07/04 04:57:38;;;;;;;;;;;;;;;10.40;49.73;95280.34;4952895;28;19909;-80
2023/07/04 05:00:05;;;;;;;;;;;;;;;10.84;48.62;95289.25;4966818;28;19918;-80
2023/07/04 05:02:30;;;;;;;;;;;;;;;10.75;48.79;95283.22;4954576;28;20311;-80
2023/07/04 05:04:55;;;;;;;;;;;;;;;10.85;48.49;95287.44;4947734;28;19910;-78
2023/07/04 05:07:23;;;;;;;;;;;;;;;10.94;48.34;95286.28;4950425;28;19918;-77
2023/07/04 05:09:49;;;;;;;;;;;;;;;10.78;48.66;95292.66;4948497;28;19922;-76
2023/07/04 05:12:15;;;;;;;;;;;;;;;10.72;49.07;95293.44;4944404;28;20380;-78
2023/07/04 05:14:40;;;;;;;;;;;;;;;10.98;48.48;95300.06;4948708;28;19921;-77
2023/07/04 05:17:05;;;;;;;;;;;;;;;10.74;49.27;95300.22;4945087;28;19934;-79
2023/07/04 05:19:30;;;;;;;;;;;;;;;10.61;48.96;95298.22;4948023;28;20398;-77
2023/07/04 05:21:56;;;;;;;;;;;;;;;10.78;49.06;95308.63;4944948;28;19922;-78
2023/07/04 05:24:21;;;;;;;;;;;;;;;10.90;48.53;95305.50;4955423;28;19922;-80
2023/07/04 05:26:46;;;;;;;;;;;;;;;10.33;49.81;95306.88;4959448;28;20515;-78
2023/07/04 05:29:12;;;;;;;;;;;;;;;10.62;49.12;95299.84;4955239;28;19922;-78
2023/07/04 05:31:37;;;;;;;;;;;;;;;11.00;48.59;95306.84;4929860;28;20311;-77
2023/07/04 05:34:02;;;;;;;;;;;;;;;10.67;49.42;95309.16;4948637;28;20295;-77
2023/07/04 05:36:32;;;;;;;;;;;;;;;11.00;48.54;95306.03;4948146;28;20411;-78
2023/07/04 05:39:01;;;;;;;;;;;;;;;10.49;50.09;95300.53;4953410;28;20403;-78
2023/07/04 05:41:26;;;;;;;;;;;;;;;10.95;48.87;95308.44;4933238;28;19981;-78
2023/07/04 05:43:53;;;;;;;;;;;;;;;10.85;49.05;95308.75;4941825;28;20387;-80
2023/07/04 05:46:18;;;;;;;;;;;;;;;11.06;48.68;95305.28;4942916;28;19965;-76
2023/07/04 05:48:43;;;;;;;;;;;;;;;10.49;49.80;95313.00;4941684;28;20360;-80
2023/07/04 05:51:09;;;;;;;;;;;;;;;10.29;50.21;95320.72;4944330;28;19922;-81
2023/07/04 05:53:35;;;;;;;;;;;;;;;10.88;49.31;95319.00;4950457;28;20331;-78
2023/07/04 05:56:11;;;;;;;;;;;;;;;10.84;49.75;95323.88;4948949;28;19926;-78
2023/07/04 05:58:36;;;;;;;;;;;;;;;11.01;49.14;95326.31;4947604;28;19935;-80
2023/07/04 06:01:09;;;;;;;;;;;;;;;11.28;48.49;95323.16;4951250;28;19922;-81
2023/07/04 06:03:34;;;;;;;;;;;;;;;11.13;48.45;95322.16;4933520;28;19918;-78
2023/07/04 06:06:01;;;;;;;;;;;;;;;11.08;49.00;95335.19;4942208;28;19981;-78
2023/07/04 06:08:26;;;;;;;;;;;;;;;11.24;49.04;95333.34;4941489;28;20015;-76
2023/07/04 06:10:58;;;;;;;;;;;;;;;11.57;48.13;95330.19;4942974;28;20280;-78
2023/07/04 06:13:24;;;;;;;;;;;;;;;11.09;48.81;95328.88;4951283;28;19925;-77
2023/07/04 06:15:49;;;;;;;;;;;;;;;11.32;48.90;95343.09;4948201;28;19930;-77
2023/07/04 06:18:14;;;;;;;;;;;;;;;11.57;47.53;95337.38;4943267;28;19992;-80
2023/07/04 06:20:39;;;;;;;;;;;;;;;11.18;48.80;95336.78;4947511;28;20270;-79
2023/07/04 06:23:04;;;;;;;;;;;;;;;11.24;48.54;95338.69;4945327;28;20331;-78
2023/07/04 06:25:30;;;;;;;;;;;;;;;11.33;48.78;95337.56;4945198;28;19930;-78
2023/07/04 06:27:55;;;;;;;;;;;;;;;11.75;47.06;95336.91;4950909;28;19922;-78
2023/07/04 06:30:20;;;;;;;;;;;;;;;11.52;47.55;95335.25;4951208;28;19918;-81
2023/07/04 06:32:45;;;;;;;;;;;;;;;10.13;51.41;95335.84;4959356;28;19926;-81
2023/07/04 06:35:11;;;;;;;;;;;;;;;11.42;48.26;95340.09;4948621;28;20387;-76
2023/07/04 06:37:36;;;;;;;;;;;;;;;11.70;48.51;95331.31;4949787;28;19918;-80
2023/07/04 06:40:01;;;;;;;;;;;;;;;11.41;48.13;95333.94;4942169;28;19933;-79
2023/07/04 06:42:27;;;;;;;;;;;;;;;11.41;48.23;95339.25;4923302;28;19915;-78
2023/07/04 06:44:52;;;;;;;;;;;;;;;11.46;47.97;95334.19;4949948;28;20473;-78
2023/07/04 06:47:17;;;;;;;;;;;;;;;11.44;48.53;95341.56;4944742;28;19921;-79
2023/07/04 06:49:42;;;;;;;;;;;;;;;11.17;48.18;95340.44;4957417;28;19922;-81
2023/07/04 06:52:08;;;;;;;;;;;;;;;11.84;47.47;95338.44;4944280;28;19922;-79
2023/07/04 06:54:33;;;;;;;;;;;;;;;11.98;47.51;95344.69;4952594;28;19991;-77
2023/07/04 06:57:02;;;;;;;;;;;;;;;11.74;47.31;95340.59;4948951;28;19942;-80
2023/07/04 06:59:27;;;;;;;;;;;;;;;12.39;46.30;95344.97;4931726;28;20123;-77
2023/07/04 07:01:52;;;;;;;;;;;;;;;11.72;47.49;95353.28;4951696;28;20518;-81
2023/07/04 07:04:17;;;;;;;;;;;;;;;12.05;46.24;95349.22;4961058;28;20389;-80
2023/07/04 07:06:43;;;;;;;;;;;;;;;11.59;47.47;95346.00;4969238;28;19922;-76
2023/07/04 07:09:08;;;;;;;;;;;;;;;12.15;45.56;95350.59;4970008;28;20338;-78
2023/07/04 07:11:33;;;;;;;;;;;;;;;12.80;45.29;95356.69;4966230;28;19945;-79
2023/07/04 07:13:59;;;;;;;;;;;;;;;12.85;45.13;95348.91;4963010;28;19999;-79
2023/07/04 07:16:24;;;;;;;;;;;;;;;12.78;44.84;95358.72;4961240;28;20175;-76
2023/07/04 07:18:50;;;;;;;;;;;;;;;13.02;44.52;95367.31;4952541;28;19944;-81
2023/07/04 07:21:20;;;;;;;;;;;;;;;12.97;44.41;95373.22;4943961;28;19999;-79
2023/07/04 07:23:45;;;;;;;;;;;;;;;13.18;44.72;95366.94;4945882;28;19997;-78
2023/07/04 07:26:11;;;;;;;;;;;;;;;12.61;45.91;95368.94;4956448;28;20375;-80
2023/07/04 07:28:38;;;;;;;;;;;;;;;12.49;45.05;95366.81;4954089;28;19922;-77
2023/07/04 07:31:06;;;;;;;;;;;;;;;13.52;43.20;95385.75;4934779;28;19957;-79
2023/07/04 07:33:31;;;;;;;;;;;;;;;11.95;46.14;95370.91;4958075;28;20445;-77
2023/07/04 07:35:57;;;;;;;;;;;;;;;13.28;43.50;95368.41;4953394;28;19917;-77
2023/07/04 07:38:22;;;;;;;;;;;;;;;12.92;42.69;95371.13;4937716;28;20119;-79
2023/07/04 07:40:51;;;;;;;;;;;;;;;12.37;44.13;95368.38;4950912;28;19948;-72
2023/07/04 07:43:16;;;;;;;;;;;;;;;12.16;46.06;95378.09;4963949;28;20386;-69
2023/07/04 07:45:41;;;;;;;;;;;;;;;12.35;43.86;95375.75;4966676;28;19918;-71
2023/07/04 07:48:07;;;;;;;;;;;;;;;11.83;46.07;95373.28;4969383;28;19972;-71
2023/07/04 07:50:32;;;;;;;;;;;;;;;12.08;44.29;95384.41;4964187;28;19957;-69
2023/07/04 07:52:57;;;;;;;;;;;;;;;12.03;44.84;95381.44;4968145;28;20375;-70
2023/07/04 07:55:22;;;;;;;;;;;;;;;12.96;42.89;95384.94;4975157;28;19922;-70
2023/07/04 07:57:48;;;;;;;;;;;;;;;12.89;42.02;95390.22;4965453;28;19929;-70
2023/07/04 08:00:13;;;;;;;;;;;;;;;12.78;44.17;95382.75;4962193;28;19997;-70
2023/07/04 08:02:38;;;;;;;;;;;;;;;12.98;41.81;95392.75;4962905;28;19933;-70
2023/07/04 08:05:04;;;;;;;;;;;;;;;12.57;42.23;95397.88;4968912;28;19925;-69
2023/07/04 08:07:29;;;;;;;;;;;;;;;11.85;44.79;95381.91;4963956;28;19949;-71
2023/07/04 08:09:55;;;;;;;;;;;;;;;12.58;43.83;95385.34;4950425;28;19948;-70
2023/07/04 08:12:20;;;;;;;;;;;;;;;12.59;44.73;95387.81;4956883;28;19922;-68
2023/07/04 08:14:45;;;;;;;;;;;;;;;13.14;41.72;95389.75;4967969;28;19922;-68
2023/07/04 08:17:10;;;;;;;;;;;;;;;13.16;40.91;95392.25;4967624;28;20008;-68
2023/07/04 08:19:36;;;;;;;;;;;;;;;12.73;42.42;95394.06;4965324;28;19918;-69
2023/07/04 08:22:01;;;;;;;;;;;;;;;13.42;41.92;95383.47;4962214;28;19914;-69
2023/07/04 08:24:26;;;;;;;;;;;;;;;13.24;41.71;95393.91;4964616;28;19972;-72
2023/07/04 08:26:52;;;;;;;;;;;;;;;13.65;41.20;95394.81;4971817;28;19952;-70
2023/07/04 08:29:17;;;;;;;;;;;;;;;13.79;41.22;95395.66;4966739;28;20540;-70
2023/07/04 08:31:42;;;;;;;;;;;;;;;12.31;42.67;95396.69;4953035;28;19956;-70
2023/07/04 08:34:10;;;;;;;;;;;;;;;13.10;42.51;95401.03;4954934;28;19928;-67
2023/07/04 08:36:35;;;;;;;;;;;;;;;13.14;42.49;95404.97;4958261;28;19914;-74
2023/07/04 08:39:00;;;;;;;;;;;;;;;13.55;41.53;95412.09;4956288;28;20079;-75
2023/07/04 08:41:29;;;;;;;;;;;;;;;14.42;39.11;95391.78;4942271;28;19923;-75
2023/07/04 08:43:57;;;;;;;;;;;;;;;14.38;39.28;95395.91;4960267;28;20314;-75
2023/07/04 08:46:22;;;;;;;;;;;;;;;14.27;39.03;95397.38;4957715;28;19976;-75
2023/07/04 08:48:48;;;;;;;;;;;;;;;14.07;40.77;95403.53;4960401;28;20533;-76
2023/07/04 08:51:15;;;;;;;;;;;;;;;14.68;39.31;95397.28;4959213;28;20220;-75
2023/07/04 08:53:41;;;;;;;;;;;;;;;15.22;37.38;95395.31;4958888;28;19910;-76
2023/07/04 08:56:12;;;;;;;;;;;;;;;15.21;37.75;95401.72;4943061;28;19921;-76
2023/07/04 08:58:59;;;;;;;;;;;;;;;14.25;38.11;95410.16;4957574;28;19957;-76
2023/07/04 09:01:48;;;;;;;;;;;;;;;13.68;40.76;95419.34;4951496;28;19929;-77
2023/07/04 09:04:21;;;;;;;;;;;;;;;15.73;36.93;95406.22;4946960;28;20445;-76
2023/07/04 09:06:59;;;;;;;;;;;;;;;15.58;37.28;95408.34;4937706;28;19968;-76
2023/07/04 09:09:31;;;;;;;;;;;;;;;15.01;36.93;95411.66;4935128;28;20385;-76
2023/07/04 09:11:57;;;;;;;;;;;;;;;14.07;38.02;95414.25;4959353;28;21026;-76
2023/07/04 09:14:24;;;;;;;;;;;;;;;15.67;36.55;95415.09;4958541;28;19948;-75
2023/07/04 09:16:51;;;;;;;;;;;;;;;15.68;36.01;95413.25;4939644;28;20363;-76
2023/07/04 09:19:17;;;;;;;;;;;;;;;16.58;34.67;95408.66;4957712;28;20346;-75
2023/07/04 09:21:44;;;;;;;;;;;;;;;16.23;35.41;95417.22;4943966;28;20431;-77
2023/07/04 09:24:09;;;;;;;;;;;;;;;14.97;36.72;95416.63;4957208;28;20219;-74
2023/07/04 09:26:41;;;;;;;;;;;;;;;15.21;37.37;95427.69;4931097;28;20261;-75
2023/07/04 09:29:06;;;;;;;;;;;;;;;15.60;37.19;95420.53;4940721;28;19913;-74
2023/07/04 09:31:33;;;;;;;;;;;;;;;15.73;35.72;95430.34;4954571;28;20302;-76
2023/07/04 09:34:00;;;;;;;;;;;;;;;15.70;35.83;95421.91;4961236;28;19976;-76
2023/07/04 09:36:26;;;;;;;;;;;;;;;16.03;36.38;95418.19;4961059;28;19914;-75
2023/07/04 09:38:55;;;;;;;;;;;;;;;16.33;36.32;95422.09;4943568;28;20320;-75
2023/07/04 09:41:27;;;;;;;;;;;;;;;15.71;36.42;95415.50;4950620;28;20454;-76
2023/07/04 09:43:53;;;;;;;;;;;;;;;16.81;35.37;95423.31;4960653;28;20338;-76
2023/07/04 09:46:23;;;;;;;;;;;;;;;16.79;35.60;95420.03;4961461;28;19910;-75
2023/07/04 09:48:48;;;;;;;;;;;;;;;17.02;33.12;95413.16;4941582;28;19944;-75
2023/07/04 09:51:24;;;;;;;;;;;;;;;15.73;35.16;95425.00;4971814;28;19941;-74
2023/07/04 09:53:49;;;;;;;;;;;;;;;15.48;36.33;95412.31;4954543;28;20161;-75
2023/07/04 09:56:26;;;;;;;;;;;;;;;15.73;35.64;95416.09;4969812;28;20461;-76
2023/07/04 09:59:10;;;;;;;;;;;;;;;14.65;36.83;95408.44;4960225;28;19918;-76
2023/07/04 10:01:37;;;;;;;;;;;;;;;15.89;35.28;95417.47;4969273;28;20147;-76
2023/07/04 10:04:07;;;;;;;;;;;;;;;15.80;35.31;95424.09;4937605;28;20165;-76
2023/07/04 10:06:33;;;;;;;;;;;;;;;15.38;35.35;95411.09;4942619;28;20413;-76
2023/07/04 10:09:05;;;;;;;;;;;;;;;15.61;34.91;95418.66;4935885;28;19914;-75
2023/07/04 10:11:34;;;;;;;;;;;;;;;16.67;34.08;95411.88;4955305;28;20225;-76
2023/07/04 10:14:09;;;;;;;;;;;;;;;16.98;33.36;95418.19;4970844;28;20510;-76
2023/07/04 10:16:35;;;;;;;;;;;;;;;16.39;34.42;95411.31;4947872;28;20028;-76
2023/07/04 10:19:10;;;;;;;;;;;;;;;16.08;34.40;95412.19;4966606;28;19992;-76
2023/07/04 10:21:39;;;;;;;;;;;;;;;15.62;35.03;95417.63;4961417;28;20371;-77
2023/07/04 10:24:07;;;;;;;;;;;;;;;15.36;36.15;95425.56;4946933;28;20113;-74
2023/07/04 10:26:32;;;;;;;;;;;;;;;16.12;34.63;95416.88;4958068;28;19937;-74
2023/07/04 10:28:57;;;;;;;;;;;;;;;16.07;34.65;95416.72;4961606;28;19921;-75
2023/07/04 10:31:23;;;;;;;;;;;;;;;16.35;34.53;95436.97;4948584;28;19961;-77
2023/07/04 10:33:50;;;;;;;;;;;;;;;15.88;33.98;95418.50;4949513;28;20438;-76
2023/07/04 10:36:17;;;;;;;;;;;;;;;16.34;33.63;95416.50;4964655;28;19969;-77
2023/07/04 10:38:43;;;;;;;;;;;;;;;16.74;33.87;95415.34;4970603;28;19921;-76
2023/07/04 10:41:29;;;;;;;;;;;;;;;17.32;33.12;95415.13;4955626;28;20588;-76
2023/07/04 10:44:04;;;;;;;;;;;;;;;17.76;32.29;95406.06;4972809;28;19922;-75
2023/07/04 10:46:30;;;;;;;;;;;;;;;18.40;31.99;95404.69;4946424;28;20358;-76
2023/07/04 10:48:58;;;;;;;;;;;;;;;17.35;32.08;95409.31;4964137;28;19957;-76
2023/07/04 10:51:25;;;;;;;;;;;;;;;17.64;31.99;95409.53;4946727;28;19921;-77
2023/07/04 10:53:50;;;;;;;;;;;;;;;19.19;29.54;95400.78;4960049;28;19969;-75
2023/07/04 10:56:26;;;;;;;;;;;;;;;19.21;29.39;95406.72;4946319;28;19922;-76
2023/07/04 10:58:53;;;;;;;;;;;;;;;20.06;28.18;95409.97;4942781;28;20485;-76
2023/07/04 11:01:20;;;;;;;;;;;;;;;20.01;28.08;95405.28;4957334;28;19936;-76
2023/07/04 11:03:46;;;;;;;;;;;;;;;17.45;31.80;95414.16;4951338;28;20023;-76
2023/07/04 11:06:16;;;;;;;;;;;;;;;18.93;28.90;95415.59;4973823;28;20508;-76
2023/07/04 11:08:42;;;;;;;;;;;;;;;16.64;32.17;95423.06;4946164;28;19984;-76
2023/07/04 11:11:11;;;;;;;;;;;;;;;17.89;30.02;95415.84;4937426;28;19917;-76
2023/07/04 11:13:40;;;;;;;;;;;;;;;18.03;30.40;95421.84;4946946;28;19914;-75
2023/07/04 11:16:05;;;;;;;;;;;;;;;19.19;29.31;95402.66;4974174;28;19991;-77
2023/07/04 11:18:32;;;;;;;;;;;;;;;17.49;29.90;95417.19;4937541;28;20463;-77
2023/07/04 11:21:06;;;;;;;;;;;;;;;17.65;30.58;95416.53;4963333;28;19910;-77
2023/07/04 11:23:50;;;;;;;;;;;;;;;17.59;30.50;95406.72;4963056;28;20354;-77
2023/07/04 11:26:16;;;;;;;;;;;;;;;17.93;30.27;95406.25;4962637;28;19909;-76
2023/07/04 11:28:43;;;;;;;;;;;;;;;18.25;30.99;95413.25;4976723;28;20414;-75
2023/07/04 11:31:11;;;;;;;;;;;;;;;18.30;30.14;95399.88;4971929;28;19921;-76
2023/07/04 11:33:38;;;;;;;;;;;;;;;19.26;29.30;95400.63;4962145;28;19997;-77
2023/07/04 11:36:04;;;;;;;;;;;;;;;19.61;27.36;95401.59;4935244;28;19918;-74
2023/07/04 11:38:30;;;;;;;;;;;;;;;19.99;27.52;95407.44;4958233;28;19909;-76
2023/07/04 11:40:55;;;;;;;;;;;;;;;19.61;27.52;95396.19;4974563;28;19909;-76
2023/07/04 11:43:21;;;;;;;;;;;;;;;18.15;29.35;95400.34;4975588;28;20371;-76
2023/07/04 11:45:47;;;;;;;;;;;;;;;19.19;28.57;95403.47;4945331;28;20414;-77
2023/07/04 11:48:14;;;;;;;;;;;;;;;18.45;29.24;95402.09;4944808;28;19924;-76
2023/07/04 11:50:39;;;;;;;;;;;;;;;19.66;27.71;95411.66;4942461;28;19954;-74
2023/07/04 11:53:09;;;;;;;;;;;;;;;20.44;26.37;95392.22;4959486;28;19910;-76
2023/07/04 11:55:35;;;;;;;;;;;;;;;20.43;26.64;95400.56;4969000;28;20061;-75
2023/07/04 11:58:06;;;;;;;;;;;;;;;20.00;26.81;95402.84;4962206;28;19936;-76
2023/07/04 12:00:40;;;;;;;;;;;;;;;19.51;28.13;95406.81;4965189;28;19922;-76
2023/07/04 12:03:18;;;;;;;;;;;;;;;19.68;27.79;95398.75;4968160;28;19961;-76
2023/07/04 12:05:50;;;;;;;;;;;;;;;19.12;28.93;95401.94;4976165;28;19914;-76
2023/07/04 12:08:20;;;;;;;;;;;;;;;18.59;29.43;95413.50;4949092;28;20299;-77
2023/07/04 12:10:45;;;;;;;;;;;;;;;19.03;29.26;95402.31;4949230;28;20004;-77
2023/07/04 12:13:11;;;;;;;;;;;;;;;18.91;28.51;95404.22;4957735;28;19989;-77
2023/07/04 12:15:37;;;;;;;;;;;;;;;19.12;29.03;95393.84;4957590;28;19926;-77
2023/07/04 12:18:23;;;;;;;;;;;;;;;20.26;27.74;95390.56;4945062;28;19945;-77
2023/07/04 12:20:49;;;;;;;;;;;;;;;19.65;29.01;95391.13;4961256;28;19918;-77
2023/07/04 12:23:15;;;;;;;;;;;;;;;18.20;29.73;95391.53;4964187;28;19918;-76
2023/07/04 12:25:42;;;;;;;;;;;;;;;19.73;27.35;95388.03;4965805;28;19918;-76
2023/07/04 12:28:11;;;;;;;;;;;;;;;20.45;26.68;95379.50;4945879;28;20457;-77
2023/07/04 12:30:39;;;;;;;;;;;;;;;19.62;27.40;95399.72;4946234;28;19914;-76
2023/07/04 12:33:05;;;;;;;;;;;;;;;19.01;27.79;95396.38;4961223;28;19918;-73
2023/07/04 12:35:31;;;;;;;;;;;;;;;19.92;27.46;95395.94;4966308;28;20170;-76
2023/07/04 12:37:57;;;;;;;;;;;;;;;20.24;26.68;95384.59;4947027;28;20374;-76
2023/07/04 12:40:24;;;;;;;;;;;;;;;19.75;26.77;95379.69;4941420;28;19918;-76
2023/07/04 12:42:50;;;;;;;;;;;;;;;20.03;26.98;95384.28;4963284;28;19925;-76
2023/07/04 12:45:22;;;;;;;;;;;;;;;20.38;25.89;95397.75;4960380;28;20184;-75
2023/07/04 12:47:48;;;;;;;;;;;;;;;18.10;29.48;95384.03;4946860;28;20017;-75